Aviation Digital Data Service (ADDS)

Output produced by METARs form (0250 UTC 21 August 2017)
found at http://aviationweather.gov/adds/metars/
 
KBAF 202326Z 2100/2124 30005KT P6SM FEW250 
     FM210900 00000KT 4SM BR FEW250 
     FM211000 00000KT 6SM BR FEW250 
     FM211700 22006KT P6SM FEW250